sensor_id;sensor_type;location;lat;lon;timestamp;pressure;altitude;pressure_sealevel;temperature;humidity
28181;BME280;15464;50.988;10.318;2023-07-13T00:00:37;98770.50;;;16.72;62.38
28181;BME280;15464;50.988;10.318;2023-07-13T00:03:04;98771.03;;;16.68;62.42
28181;BME280;15464;50.988;10.318;2023-07-13T00:05:31;98769.38;;;16.67;62.59
28181;BME280;15464;50.988;10.318;2023-07-13T00:07:58;98769.22;;;16.60;62.95
28181;BME280;15464;50.988;10.318;2023-07-13T00:10:25;98771.72;;;16.53;62.78
28181;BME280;15464;50.988;10.318;2023-07-13T00:12:52;98768.53;;;16.50;63.04
28181;BME280;15464;50.988;10.318;2023-07-13T00:15:25;98771.91;;;16.44;63.72
28181;BME280;15464;50.988;10.318;2023-07-13T00:17:54;98771.44;;;16.40;63.11
28181;BME280;15464;50.988;10.318;2023-07-13T00:20:23;98778.63;;;16.40;63.07
28181;BME280;15464;50.988;10.318;2023-07-13T00:22:52;98781.31;;;16.40;61.88
28181;BME280;15464;50.988;10.318;2023-07-13T00:25:21;98788.66;;;16.38;62.87
28181;BME280;15464;50.988;10.318;2023-07-13T00:27:50;98788.50;;;16.31;63.10
28181;BME280;15464;50.988;10.318;2023-07-13T00:30:18;98792.38;;;16.29;63.58
28181;BME280;15464;50.988;10.318;2023-07-13T00:32:44;98791.88;;;16.25;64.03
28181;BME280;15464;50.988;10.318;2023-07-13T00:35:13;98795.06;;;16.21;62.93
28181;BME280;15464;50.988;10.318;2023-07-13T00:37:40;98790.06;;;16.18;64.01
28181;BME280;15464;50.988;10.318;2023-07-13T00:40:07;98793.75;;;16.17;62.85
28181;BME280;15464;50.988;10.318;2023-07-13T00:42:34;98798.91;;;16.18;63.34
28181;BME280;15464;50.988;10.318;2023-07-13T00:47:40;98805.44;;;16.16;63.22
28181;BME280;15464;50.988;10.318;2023-07-13T00:50:10;98802.94;;;16.14;62.26
28181;BME280;15464;50.988;10.318;2023-07-13T00:52:41;98814.47;;;16.14;63.09
28181;BME280;15464;50.988;10.318;2023-07-13T00:55:09;98815.63;;;16.12;63.76
28181;BME280;15464;50.988;10.318;2023-07-13T00:57:36;98815.16;;;16.08;63.67
28181;BME280;15464;50.988;10.318;2023-07-13T01:00:05;98807.81;;;16.02;64.48
28181;BME280;15464;50.988;10.318;2023-07-13T01:02:34;98808.81;;;16.01;64.93
28181;BME280;15464;50.988;10.318;2023-07-13T01:05:01;98810.81;;;15.99;65.02
28181;BME280;15464;50.988;10.318;2023-07-13T01:07:28;98805.44;;;15.99;64.94
28181;BME280;15464;50.988;10.318;2023-07-13T01:09:54;98805.81;;;15.96;65.66
28181;BME280;15464;50.988;10.318;2023-07-13T01:12:21;98807.47;;;15.97;64.85
28181;BME280;15464;50.988;10.318;2023-07-13T01:14:48;98813.31;;;16.01;64.22
28181;BME280;15464;50.988;10.318;2023-07-13T01:17:15;98817.66;;;16.02;64.71
28181;BME280;15464;50.988;10.318;2023-07-13T01:19:44;98810.00;;;15.99;64.69
28181;BME280;15464;50.988;10.318;2023-07-13T01:22:13;98806.81;;;15.95;65.07
28181;BME280;15464;50.988;10.318;2023-07-13T01:24:41;98802.81;;;15.91;65.19
28181;BME280;15464;50.988;10.318;2023-07-13T01:27:10;98802.13;;;15.89;65.40
28181;BME280;15464;50.988;10.318;2023-07-13T01:29:38;98794.09;;;15.89;65.77
28181;BME280;15464;50.988;10.318;2023-07-13T01:32:10;98797.78;;;15.88;66.98
28181;BME280;15464;50.988;10.318;2023-07-13T01:34:38;98796.09;;;15.87;67.13
28181;BME280;15464;50.988;10.318;2023-07-13T01:37:09;98791.09;;;15.84;67.18
28181;BME280;15464;50.988;10.318;2023-07-13T01:39:36;98793.25;;;15.81;67.07
28181;BME280;15464;50.988;10.318;2023-07-13T01:42:04;98796.28;;;15.78;66.86
28181;BME280;15464;50.988;10.318;2023-07-13T01:44:31;98800.31;;;15.73;66.39
28181;BME280;15464;50.988;10.318;2023-07-13T01:46:58;98801.47;;;15.71;67.10
28181;BME280;15464;50.988;10.318;2023-07-13T01:49:24;98800.13;;;15.67;66.49
28181;BME280;15464;50.988;10.318;2023-07-13T01:51:51;98800.44;;;15.64;67.09
28181;BME280;15464;50.988;10.318;2023-07-13T01:54:18;98795.47;;;15.61;67.61
28181;BME280;15464;50.988;10.318;2023-07-13T01:56:44;98790.44;;;15.58;67.64
28181;BME280;15464;50.988;10.318;2023-07-13T01:59:11;98796.13;;;15.55;67.39
28181;BME280;15464;50.988;10.318;2023-07-13T02:01:37;98798.13;;;15.53;67.24
28181;BME280;15464;50.988;10.318;2023-07-13T02:04:04;98794.72;;;15.51;67.21
28181;BME280;15464;50.988;10.318;2023-07-13T02:06:31;98792.41;;;15.48;67.42
28181;BME280;15464;50.988;10.318;2023-07-13T02:08:58;98795.75;;;15.42;67.91
28181;BME280;15464;50.988;10.318;2023-07-13T02:11:25;98795.03;;;15.31;68.64
28181;BME280;15464;50.988;10.318;2023-07-13T02:14:02;98799.03;;;15.27;68.30
28181;BME280;15464;50.988;10.318;2023-07-13T02:16:29;98796.03;;;15.22;68.44
28181;BME280;15464;50.988;10.318;2023-07-13T02:18:57;98806.38;;;15.17;69.11
28181;BME280;15464;50.988;10.318;2023-07-13T02:21:24;98801.34;;;15.14;68.71
28181;BME280;15464;50.988;10.318;2023-07-13T02:23:50;98806.19;;;15.11;68.33
28181;BME280;15464;50.988;10.318;2023-07-13T02:26:17;98802.34;;;15.05;68.84
28181;BME280;15464;50.988;10.318;2023-07-13T02:28:44;98805.31;;;15.02;69.45
28181;BME280;15464;50.988;10.318;2023-07-13T02:31:14;98806.66;;;14.98;69.16
28181;BME280;15464;50.988;10.318;2023-07-13T02:33:41;98806.97;;;14.95;69.04
28181;BME280;15464;50.988;10.318;2023-07-13T02:36:09;98809.97;;;14.92;69.23
28181;BME280;15464;50.988;10.318;2023-07-13T02:38:36;98809.78;;;14.85;69.23
28181;BME280;15464;50.988;10.318;2023-07-13T02:41:04;98810.25;;;14.81;69.56
28181;BME280;15464;50.988;10.318;2023-07-13T02:43:31;98817.41;;;14.72;69.58
28181;BME280;15464;50.988;10.318;2023-07-13T02:45:59;98810.69;;;14.68;70.18
28181;BME280;15464;50.988;10.318;2023-07-13T02:48:30;98816.53;;;14.64;70.16
28181;BME280;15464;50.988;10.318;2023-07-13T02:50:57;98821.16;;;14.62;70.50
28181;BME280;15464;50.988;10.318;2023-07-13T02:53:23;98822.84;;;14.55;70.72
28181;BME280;15464;50.988;10.318;2023-07-13T02:55:50;98813.09;;;14.45;70.96
28181;BME280;15464;50.988;10.318;2023-07-13T02:58:17;98809.75;;;14.43;71.08
28181;BME280;15464;50.988;10.318;2023-07-13T03:00:44;98820.59;;;14.42;70.52
28181;BME280;15464;50.988;10.318;2023-07-13T03:03:13;98824.25;;;14.41;70.71
28181;BME280;15464;50.988;10.318;2023-07-13T03:05:42;98824.00;;;14.34;70.21
28181;BME280;15464;50.988;10.318;2023-07-13T03:08:10;98824.50;;;14.30;71.02
28181;BME280;15464;50.988;10.318;2023-07-13T03:10:37;98831.47;;;14.31;70.86
28181;BME280;15464;50.988;10.318;2023-07-13T03:13:06;98830.97;;;14.27;70.72
28181;BME280;15464;50.988;10.318;2023-07-13T03:15:32;98827.59;;;14.25;70.59
28181;BME280;15464;50.988;10.318;2023-07-13T03:17:59;98840.28;;;14.23;70.88
28181;BME280;15464;50.988;10.318;2023-07-13T03:20:26;98841.44;;;14.21;70.81
28181;BME280;15464;50.988;10.318;2023-07-13T03:22:53;98835.03;;;14.13;70.62
28181;BME280;15464;50.988;10.318;2023-07-13T03:25:19;98838.47;;;14.06;72.17
28181;BME280;15464;50.988;10.318;2023-07-13T03:27:46;98841.84;;;14.08;72.05
28181;BME280;15464;50.988;10.318;2023-07-13T03:30:13;98858.16;;;14.05;71.67
28181;BME280;15464;50.988;10.318;2023-07-13T03:32:40;98868.13;;;14.03;71.87
28181;BME280;15464;50.988;10.318;2023-07-13T03:35:08;98858.47;;;14.02;72.51
28181;BME280;15464;50.988;10.318;2023-07-13T03:37:35;98853.28;;;14.00;72.62
28181;BME280;15464;50.988;10.318;2023-07-13T03:40:06;98855.09;;;14.00;73.06
28181;BME280;15464;50.988;10.318;2023-07-13T03:42:35;98853.59;;;13.97;73.62
28181;BME280;15464;50.988;10.318;2023-07-13T03:45:02;98866.59;;;14.00;72.05
28181;BME280;15464;50.988;10.318;2023-07-13T03:47:29;98869.13;;;14.02;71.90
28181;BME280;15464;50.988;10.318;2023-07-13T03:49:56;98858.16;;;14.05;71.97
28181;BME280;15464;50.988;10.318;2023-07-13T03:52:22;98860.50;;;14.08;72.14
28181;BME280;15464;50.988;10.318;2023-07-13T03:54:49;98863.03;;;14.09;72.75
28181;BME280;15464;50.988;10.318;2023-07-13T03:57:16;98872.00;;;14.08;72.33
28181;BME280;15464;50.988;10.318;2023-07-13T03:59:43;98869.06;;;14.11;72.29
28181;BME280;15464;50.988;10.318;2023-07-13T04:02:10;98872.53;;;14.12;71.97
28181;BME280;15464;50.988;10.318;2023-07-13T04:04:37;98873.22;;;14.14;72.90
28181;BME280;15464;50.988;10.318;2023-07-13T04:07:07;98884.59;;;14.16;72.99
28181;BME280;15464;50.988;10.318;2023-07-13T04:09:35;98890.56;;;14.18;72.19
28181;BME280;15464;50.988;10.318;2023-07-13T04:12:02;98880.59;;;14.20;73.74
28181;BME280;15464;50.988;10.318;2023-07-13T04:14:29;98879.47;;;14.23;74.35
28181;BME280;15464;50.988;10.318;2023-07-13T04:16:56;98882.66;;;14.26;74.34
28181;BME280;15464;50.988;10.318;2023-07-13T04:19:23;98875.34;;;14.28;73.94
28181;BME280;15464;50.988;10.318;2023-07-13T04:21:50;98880.34;;;14.31;73.68
28181;BME280;15464;50.988;10.318;2023-07-13T04:24:17;98882.03;;;14.32;73.15
28181;BME280;15464;50.988;10.318;2023-07-13T04:26:44;98880.06;;;14.34;73.65
28181;BME280;15464;50.988;10.318;2023-07-13T04:29:10;98877.09;;;14.37;73.34
28181;BME280;15464;50.988;10.318;2023-07-13T04:31:37;98878.28;;;14.43;73.65
28181;BME280;15464;50.988;10.318;2023-07-13T04:34:04;98878.81;;;14.46;74.31
28181;BME280;15464;50.988;10.318;2023-07-13T04:36:30;98877.50;;;14.50;74.96
28181;BME280;15464;50.988;10.318;2023-07-13T04:38:57;98879.41;;;14.58;74.83
28181;BME280;15464;50.988;10.318;2023-07-13T04:41:24;98882.28;;;14.65;74.84
28181;BME280;15464;50.988;10.318;2023-07-13T04:43:51;98881.34;;;14.74;74.98
28181;BME280;15464;50.988;10.318;2023-07-13T04:46:21;98878.47;;;14.75;74.95
28181;BME280;15464;50.988;10.318;2023-07-13T04:48:50;98882.88;;;14.84;75.15
28181;BME280;15464;50.988;10.318;2023-07-13T04:51:19;98874.91;;;14.92;75.25
28181;BME280;15464;50.988;10.318;2023-07-13T04:53:46;98877.31;;;15.04;74.73
28181;BME280;15464;50.988;10.318;2023-07-13T04:56:13;98873.50;;;15.14;74.58
28181;BME280;15464;50.988;10.318;2023-07-13T04:58:40;98876.84;;;15.24;74.33
28181;BME280;15464;50.988;10.318;2023-07-13T05:01:07;98882.91;;;15.34;73.62
28181;BME280;15464;50.988;10.318;2023-07-13T05:03:35;98874.09;;;15.42;73.56
28181;BME280;15464;50.988;10.318;2023-07-13T05:06:04;98883.50;;;15.54;72.87
28181;BME280;15464;50.988;10.318;2023-07-13T05:08:31;98887.69;;;15.65;72.35
28181;BME280;15464;50.988;10.318;2023-07-13T05:11:03;98890.03;;;15.76;72.74
28181;BME280;15464;50.988;10.318;2023-07-13T05:13:30;98891.91;;;15.84;71.93
28181;BME280;15464;50.988;10.318;2023-07-13T05:16:02;98894.06;;;15.88;72.16
28181;BME280;15464;50.988;10.318;2023-07-13T05:18:30;98889.25;;;15.92;71.94
28181;BME280;15464;50.988;10.318;2023-07-13T05:21:08;98894.41;;;16.01;71.49
28181;BME280;15464;50.988;10.318;2023-07-13T05:23:36;98897.28;;;16.08;71.25
28181;BME280;15464;50.988;10.318;2023-07-13T05:26:04;98895.78;;;16.22;70.77
28181;BME280;15464;50.988;10.318;2023-07-13T05:28:35;98890.75;;;16.35;70.96
28181;BME280;15464;50.988;10.318;2023-07-13T05:31:02;98892.75;;;16.49;70.92
28181;BME280;15464;50.988;10.318;2023-07-13T05:33:29;98887.38;;;16.65;70.69
28181;BME280;15464;50.988;10.318;2023-07-13T05:35:56;98884.84;;;16.80;69.73
28181;BME280;15464;50.988;10.318;2023-07-13T05:38:23;98896.03;;;16.91;68.66
28181;BME280;15464;50.988;10.318;2023-07-13T05:40:51;98892.66;;;16.98;68.60
28181;BME280;15464;50.988;10.318;2023-07-13T05:43:17;98900.31;;;17.09;68.44
28181;BME280;15464;50.988;10.318;2023-07-13T05:45:44;98894.94;;;17.17;67.79
28181;BME280;15464;50.988;10.318;2023-07-13T05:48:11;98900.94;;;17.19;66.93
28181;BME280;15464;50.988;10.318;2023-07-13T05:50:38;98901.56;;;17.29;67.33
28181;BME280;15464;50.988;10.318;2023-07-13T05:53:04;98898.66;;;17.39;67.11
28181;BME280;15464;50.988;10.318;2023-07-13T05:55:31;98899.63;;;17.46;66.19
28181;BME280;15464;50.988;10.318;2023-07-13T05:58:00;98895.41;;;17.51;65.62
28181;BME280;15464;50.988;10.318;2023-07-13T06:00:27;98901.44;;;17.53;65.47
28181;BME280;15464;50.988;10.318;2023-07-13T06:02:53;98899.78;;;17.52;64.04
28181;BME280;15464;50.988;10.318;2023-07-13T06:05:20;98908.78;;;17.59;63.66
28181;BME280;15464;50.988;10.318;2023-07-13T06:07:47;98915.50;;;17.63;63.53
28181;BME280;15464;50.988;10.318;2023-07-13T06:10:14;98908.94;;;17.66;62.50
28181;BME280;15464;50.988;10.318;2023-07-13T06:12:40;98916.75;;;17.76;62.18
28181;BME280;15464;50.988;10.318;2023-07-13T06:15:07;98914.69;;;17.86;61.93
28181;BME280;15464;50.988;10.318;2023-07-13T06:17:34;98904.84;;;18.01;61.43
28181;BME280;15464;50.988;10.318;2023-07-13T06:20:02;98912.25;;;17.99;60.74
28181;BME280;15464;50.988;10.318;2023-07-13T06:22:30;98911.22;;;18.00;59.58
28181;BME280;15464;50.988;10.318;2023-07-13T06:24:56;98909.78;;;18.12;59.58
28181;BME280;15464;50.988;10.318;2023-07-13T06:27:24;98910.31;;;18.30;58.96
28181;BME280;15464;50.988;10.318;2023-07-13T06:29:50;98918.03;;;18.33;58.43
28181;BME280;15464;50.988;10.318;2023-07-13T06:32:17;98913.69;;;18.47;58.00
28181;BME280;15464;50.988;10.318;2023-07-13T06:34:44;98914.13;;;18.59;57.34
28181;BME280;15464;50.988;10.318;2023-07-13T06:37:11;98920.53;;;18.49;56.12
28181;BME280;15464;50.988;10.318;2023-07-13T06:39:38;98919.19;;;18.53;55.71
28181;BME280;15464;50.988;10.318;2023-07-13T06:42:05;98921.03;;;18.53;55.49
28181;BME280;15464;50.988;10.318;2023-07-13T06:44:32;98919.06;;;18.70;56.09
28181;BME280;15464;50.988;10.318;2023-07-13T06:46:59;98927.50;;;18.81;55.33
28181;BME280;15464;50.988;10.318;2023-07-13T06:49:25;98924.00;;;18.96;55.01
28181;BME280;15464;50.988;10.318;2023-07-13T06:51:52;98924.44;;;18.99;54.34
28181;BME280;15464;50.988;10.318;2023-07-13T06:54:19;98922.41;;;19.01;54.70
28181;BME280;15464;50.988;10.318;2023-07-13T06:56:45;98925.28;;;19.00;53.03
28181;BME280;15464;50.988;10.318;2023-07-13T06:59:12;98929.06;;;19.05;53.46
28181;BME280;15464;50.988;10.318;2023-07-13T07:01:39;98915.91;;;19.25;53.20
28181;BME280;15464;50.988;10.318;2023-07-13T07:04:07;98922.97;;;19.41;52.69
28181;BME280;15464;50.988;10.318;2023-07-13T07:06:35;98921.47;;;19.53;52.68
28181;BME280;15464;50.988;10.318;2023-07-13T07:09:01;98923.53;;;19.51;50.68
28181;BME280;15464;50.988;10.318;2023-07-13T07:11:28;98929.06;;;19.64;49.22
28181;BME280;15464;50.988;10.318;2023-07-13T07:13:55;98924.59;;;19.71;49.82
28181;BME280;15464;50.988;10.318;2023-07-13T07:16:22;98927.19;;;19.79;49.37
28181;BME280;15464;50.988;10.318;2023-07-13T07:18:48;98927.03;;;19.87;48.96
28181;BME280;15464;50.988;10.318;2023-07-13T07:21:15;98929.25;;;19.98;48.72
28181;BME280;15464;50.988;10.318;2023-07-13T07:23:42;98926.31;;;20.14;48.51
28181;BME280;15464;50.988;10.318;2023-07-13T07:26:10;98922.66;;;20.22;46.97
28181;BME280;15464;50.988;10.318;2023-07-13T07:28:37;98924.50;;;20.43;47.14
28181;BME280;15464;50.988;10.318;2023-07-13T07:31:06;98919.63;;;20.81;47.68
28181;BME280;15464;50.988;10.318;2023-07-13T07:33:36;98922.63;;;20.92;46.77
28181;BME280;15464;50.988;10.318;2023-07-13T07:36:04;98916.28;;;21.07;46.16
28181;BME280;15464;50.988;10.318;2023-07-13T07:38:34;98913.81;;;21.12;45.89
28181;BME280;15464;50.988;10.318;2023-07-13T07:41:03;98922.66;;;21.27;45.65
28181;BME280;15464;50.988;10.318;2023-07-13T07:43:33;98912.53;;;21.36;45.79
28181;BME280;15464;50.988;10.318;2023-07-13T07:46:00;98918.63;;;21.57;45.21
28181;BME280;15464;50.988;10.318;2023-07-13T07:48:33;98925.28;;;21.55;45.78
28181;BME280;15464;50.988;10.318;2023-07-13T07:50:59;98917.88;;;21.77;45.31
28181;BME280;15464;50.988;10.318;2023-07-13T07:53:26;98914.78;;;21.80;44.99
28181;BME280;15464;50.988;10.318;2023-07-13T07:55:53;98921.00;;;21.87;44.55
28181;BME280;15464;50.988;10.318;2023-07-13T07:58:22;98916.84;;;21.78;44.43
28181;BME280;15464;50.988;10.318;2023-07-13T08:01:09;98914.28;;;22.17;43.58
28181;BME280;15464;50.988;10.318;2023-07-13T08:03:39;98926.28;;;22.08;43.27
28181;BME280;15464;50.988;10.318;2023-07-13T08:06:08;98922.03;;;21.72;42.60
28181;BME280;15464;50.988;10.318;2023-07-13T08:08:38;98923.78;;;21.46;42.88
28181;BME280;15464;50.988;10.318;2023-07-13T08:11:05;98922.09;;;21.92;42.54
28181;BME280;15464;50.988;10.318;2023-07-13T08:13:36;98924.78;;;21.86;42.16
28181;BME280;15464;50.988;10.318;2023-07-13T08:16:04;98924.97;;;21.91;42.17
28181;BME280;15464;50.988;10.318;2023-07-13T08:18:31;98925.59;;;21.80;42.51
28181;BME280;15464;50.988;10.318;2023-07-13T08:21:03;98917.75;;;21.98;41.96
28181;BME280;15464;50.988;10.318;2023-07-13T08:23:30;98934.50;;;21.73;41.98
28181;BME280;15464;50.988;10.318;2023-07-13T08:25:59;98934.03;;;21.63;42.55
28181;BME280;15464;50.988;10.318;2023-07-13T08:28:28;98931.69;;;22.01;42.00
28181;BME280;15464;50.988;10.318;2023-07-13T08:31:00;98933.59;;;22.27;41.29
28181;BME280;15464;50.988;10.318;2023-07-13T08:33:27;98913.03;;;22.66;41.53
28181;BME280;15464;50.988;10.318;2023-07-13T08:35:53;98913.88;;;22.86;40.91
28181;BME280;15464;50.988;10.318;2023-07-13T08:38:20;98925.56;;;22.73;40.12
28181;BME280;15464;50.988;10.318;2023-07-13T08:40:53;98928.25;;;22.80;40.19
28181;BME280;15464;50.988;10.318;2023-07-13T08:43:35;98921.34;;;22.71;40.46
28181;BME280;15464;50.988;10.318;2023-07-13T08:48:44;98927.97;;;23.08;39.71
28181;BME280;15464;50.988;10.318;2023-07-13T08:51:26;98918.00;;;22.95;39.85
28181;BME280;15464;50.988;10.318;2023-07-13T08:53:58;98914.72;;;22.80;40.10
28181;BME280;15464;50.988;10.318;2023-07-13T08:56:28;98910.72;;;23.09;39.33
28181;BME280;15464;50.988;10.318;2023-07-13T08:59:00;98919.25;;;22.99;39.07
28181;BME280;15464;50.988;10.318;2023-07-13T09:04:16;98910.13;;;22.61;39.94
28181;BME280;15464;50.988;10.318;2023-07-13T09:09:32;98923.00;;;22.45;39.68
28181;BME280;15464;50.988;10.318;2023-07-13T09:12:08;98911.78;;;22.75;40.62
28181;BME280;15464;50.988;10.318;2023-07-13T09:14:47;98919.69;;;22.83;40.07
28181;BME280;15464;50.988;10.318;2023-07-13T09:17:22;98915.97;;;22.77;39.96
28181;BME280;15464;50.988;10.318;2023-07-13T09:20:02;98920.94;;;22.54;39.92
28181;BME280;15464;50.988;10.318;2023-07-13T09:22:34;98921.56;;;22.30;39.83
28181;BME280;15464;50.988;10.318;2023-07-13T09:25:23;98924.84;;;22.19;39.35
28181;BME280;15464;50.988;10.318;2023-07-13T09:27:53;98926.75;;;22.51;39.32
28181;BME280;15464;50.988;10.318;2023-07-13T09:33:14;98932.13;;;22.25;40.59
28181;BME280;15464;50.988;10.318;2023-07-13T09:35:42;98938.34;;;22.19;40.35
28181;BME280;15464;50.988;10.318;2023-07-13T09:38:17;98930.06;;;22.27;40.05
28181;BME280;15464;50.988;10.318;2023-07-13T09:43:23;98927.59;;;22.51;40.16
28181;BME280;15464;50.988;10.318;2023-07-13T09:45:52;98926.75;;;22.71;39.46
28181;BME280;15464;50.988;10.318;2023-07-13T09:48:18;98935.69;;;22.65;39.02
28181;BME280;15464;50.988;10.318;2023-07-13T09:50:46;98925.72;;;22.59;39.43
28181;BME280;15464;50.988;10.318;2023-07-13T09:53:15;98932.78;;;22.60;39.37
28181;BME280;15464;50.988;10.318;2023-07-13T09:55:44;98919.28;;;22.53;39.27
28181;BME280;15464;50.988;10.318;2023-07-13T09:58:20;98926.56;;;22.66;39.57
28181;BME280;15464;50.988;10.318;2023-07-13T10:01:03;98930.72;;;22.88;39.08
28181;BME280;15464;50.988;10.318;2023-07-13T10:03:36;98937.78;;;23.02;39.88
28181;BME280;15464;50.988;10.318;2023-07-13T10:06:16;98933.66;;;22.73;39.42
28181;BME280;15464;50.988;10.318;2023-07-13T10:08:47;98935.69;;;22.51;39.53
28181;BME280;15464;50.988;10.318;2023-07-13T10:11:18;98936.94;;;22.56;39.74
28181;BME280;15464;50.988;10.318;2023-07-13T10:13:54;98942.56;;;22.61;39.22
28181;BME280;15464;50.988;10.318;2023-07-13T10:16:24;98934.69;;;22.85;39.31
28181;BME280;15464;50.988;10.318;2023-07-13T10:18:55;98934.63;;;23.12;39.05
28181;BME280;15464;50.988;10.318;2023-07-13T10:21:28;98938.94;;;23.32;38.81
28181;BME280;15464;50.988;10.318;2023-07-13T10:24:23;98930.88;;;23.06;38.15
28181;BME280;15464;50.988;10.318;2023-07-13T10:27:18;98911.13;;;22.99;37.80
28181;BME280;15464;50.988;10.318;2023-07-13T10:32:25;98944.22;;;23.01;37.34
28181;BME280;15464;50.988;10.318;2023-07-13T10:34:51;98934.63;;;23.05;37.81
28181;BME280;15464;50.988;10.318;2023-07-13T10:37:23;98933.16;;;23.29;37.98
28181;BME280;15464;50.988;10.318;2023-07-13T10:39:53;98937.53;;;23.23;37.28
28181;BME280;15464;50.988;10.318;2023-07-13T10:42:37;98930.41;;;23.36;36.64
28181;BME280;15464;50.988;10.318;2023-07-13T10:45:17;98936.38;;;23.64;37.52
28181;BME280;15464;50.988;10.318;2023-07-13T10:47:45;98933.00;;;23.68;37.41
28181;BME280;15464;50.988;10.318;2023-07-13T10:50:19;98941.56;;;23.72;36.46
28181;BME280;15464;50.988;10.318;2023-07-13T10:52:49;98936.22;;;23.46;36.73
28181;BME280;15464;50.988;10.318;2023-07-13T10:55:38;98939.13;;;23.44;37.04
28181;BME280;15464;50.988;10.318;2023-07-13T10:58:37;98942.78;;;23.76;36.91
28181;BME280;15464;50.988;10.318;2023-07-13T11:01:13;98939.69;;;24.10;37.23
28181;BME280;15464;50.988;10.318;2023-07-13T11:06:17;98945.72;;;23.68;36.63
28181;BME280;15464;50.988;10.318;2023-07-13T11:11:58;98938.50;;;23.93;37.26
28181;BME280;15464;50.988;10.318;2023-07-13T11:14:37;98929.50;;;23.99;35.81
28181;BME280;15464;50.988;10.318;2023-07-13T11:17:48;98922.06;;;24.58;36.05
28181;BME280;15464;50.988;10.318;2023-07-13T11:22:46;98917.97;;;24.73;34.60
28181;BME280;15464;50.988;10.318;2023-07-13T11:27:51;98933.16;;;24.74;34.89
28181;BME280;15464;50.988;10.318;2023-07-13T11:30:32;98926.00;;;25.29;34.13
28181;BME280;15464;50.988;10.318;2023-07-13T11:35:49;98920.03;;;25.21;33.98
28181;BME280;15464;50.988;10.318;2023-07-13T11:38:22;98924.97;;;24.81;34.65
28181;BME280;15464;50.988;10.318;2023-07-13T11:40:53;98922.19;;;24.87;34.42
28181;BME280;15464;50.988;10.318;2023-07-13T11:43:22;98918.44;;;25.13;34.12
28181;BME280;15464;50.988;10.318;2023-07-13T11:45:52;98918.50;;;25.43;33.81
28181;BME280;15464;50.988;10.318;2023-07-13T11:48:28;98921.03;;;25.93;32.67
28181;BME280;15464;50.988;10.318;2023-07-13T11:51:01;98922.28;;;26.08;33.00
28181;BME280;15464;50.988;10.318;2023-07-13T11:53:40;98920.72;;;26.01;32.95
28181;BME280;15464;50.988;10.318;2023-07-13T11:56:07;98917.59;;;25.49;33.00
28181;BME280;15464;50.988;10.318;2023-07-13T11:58:35;98919.56;;;25.79;33.23
28181;BME280;15464;50.988;10.318;2023-07-13T12:01:02;98922.06;;;25.44;33.23
28181;BME280;15464;50.988;10.318;2023-07-13T12:03:34;98918.63;;;24.94;32.81
28181;BME280;15464;50.988;10.318;2023-07-13T12:06:04;98920.94;;;25.33;32.66
28181;BME280;15464;50.988;10.318;2023-07-13T12:08:38;98932.69;;;25.45;32.45
28181;BME280;15464;50.988;10.318;2023-07-13T12:11:18;98925.22;;;26.07;32.64
28181;BME280;15464;50.988;10.318;2023-07-13T12:13:46;98921.19;;;25.98;32.50
28181;BME280;15464;50.988;10.318;2023-07-13T12:16:15;98924.22;;;25.90;32.59
28181;BME280;15464;50.988;10.318;2023-07-13T12:18:43;98911.31;;;26.80;32.16
28181;BME280;15464;50.988;10.318;2023-07-13T12:21:17;98906.59;;;27.34;31.62
28181;BME280;15464;50.988;10.318;2023-07-13T12:23:48;98913.25;;;27.03;30.64
28181;BME280;15464;50.988;10.318;2023-07-13T12:26:17;98906.81;;;27.44;31.37
28181;BME280;15464;50.988;10.318;2023-07-13T12:28:49;98914.56;;;27.23;30.55
28181;BME280;15464;50.988;10.318;2023-07-13T12:31:45;98914.50;;;27.58;30.21
28181;BME280;15464;50.988;10.318;2023-07-13T12:34:15;98910.16;;;27.74;30.14
28181;BME280;15464;50.988;10.318;2023-07-13T12:36:54;98908.81;;;27.60;30.66
28181;BME280;15464;50.988;10.318;2023-07-13T12:39:38;98916.66;;;26.75;31.11
28181;BME280;15464;50.988;10.318;2023-07-13T12:42:23;98922.16;;;26.33;30.84
28181;BME280;15464;50.988;10.318;2023-07-13T12:45:05;98925.53;;;26.59;31.06
28181;BME280;15464;50.988;10.318;2023-07-13T12:47:41;98922.38;;;27.08;30.01
28181;BME280;15464;50.988;10.318;2023-07-13T12:50:16;98935.09;;;26.20;30.96
28181;BME280;15464;50.988;10.318;2023-07-13T12:52:44;98926.28;;;25.40;32.09
28181;BME280;15464;50.988;10.318;2023-07-13T12:55:17;98930.97;;;24.65;33.39
28181;BME280;15464;50.988;10.318;2023-07-13T12:57:52;98941.38;;;25.36;33.57
28181;BME280;15464;50.988;10.318;2023-07-13T13:00:22;98940.66;;;24.79;33.59
28181;BME280;15464;50.988;10.318;2023-07-13T13:02:54;98941.44;;;25.11;33.63
28181;BME280;15464;50.988;10.318;2023-07-13T13:05:41;98935.56;;;25.14;33.61
28181;BME280;15464;50.988;10.318;2023-07-13T13:08:11;98929.69;;;25.17;33.50
28181;BME280;15464;50.988;10.318;2023-07-13T13:10:38;98931.31;;;25.36;33.91
28181;BME280;15464;50.988;10.318;2023-07-13T13:13:05;98929.69;;;25.17;33.68
28181;BME280;15464;50.988;10.318;2023-07-13T13:15:32;98939.00;;;25.03;33.87
28181;BME280;15464;50.988;10.318;2023-07-13T13:17:59;98934.06;;;24.68;34.46
28181;BME280;15464;50.988;10.318;2023-07-13T13:20:26;98942.00;;;24.95;34.65
28181;BME280;15464;50.988;10.318;2023-07-13T13:22:54;98947.53;;;24.81;34.35
28181;BME280;15464;50.988;10.318;2023-07-13T13:25:21;98943.06;;;24.37;34.67
28181;BME280;15464;50.988;10.318;2023-07-13T13:27:49;98944.59;;;24.58;34.47
28181;BME280;15464;50.988;10.318;2023-07-13T13:30:17;98951.16;;;24.44;34.42
28181;BME280;15464;50.988;10.318;2023-07-13T13:32:46;98949.41;;;24.56;33.73
28181;BME280;15464;50.988;10.318;2023-07-13T13:35:18;98940.47;;;25.42;32.76